createdAt,value
2019-02-17T00:00:59.812Z,23.10
2019-02-17T00:05:20.386Z,23.30
2019-02-17T00:09:33.235Z,22.10
2019-02-17T00:13:45.806Z,20.50
2019-02-17T00:17:58.629Z,20.73
2019-02-17T00:22:12.264Z,21.83
2019-02-17T00:26:24.727Z,22.53
2019-02-17T00:30:37.113Z,20.93
2019-02-17T00:34:50.016Z,21.67
2019-02-17T00:39:02.585Z,21.77
2019-02-17T00:43:15.002Z,20.97
2019-02-17T00:47:27.786Z,22.87
2019-02-17T00:51:40.235Z,21.97
2019-02-17T00:55:52.649Z,21.03
2019-02-17T01:00:05.652Z,20.60
2019-02-17T01:04:18.173Z,21.57
2019-02-17T01:08:30.997Z,20.77
2019-02-17T01:12:43.706Z,19.73
2019-02-17T01:16:56.545Z,19.33
2019-02-17T01:21:09.001Z,18.57
2019-02-17T01:25:21.303Z,19.03
2019-02-17T01:29:34.293Z,18.00
2019-02-17T01:33:46.827Z,17.50
2019-02-17T01:37:59.065Z,16.77
2019-02-17T01:42:12.017Z,16.93
2019-02-17T01:46:24.413Z,16.30
2019-02-17T01:50:36.715Z,16.40
2019-02-17T01:54:49.630Z,15.47
2019-02-17T01:59:02.165Z,15.97
2019-02-17T02:03:14.587Z,15.47
2019-02-17T02:07:27.060Z,15.17
2019-02-17T02:11:39.788Z,15.57
2019-02-17T02:15:52.290Z,16.50
2019-02-17T02:20:05.129Z,16.13
2019-02-17T02:24:17.582Z,15.20
2019-02-17T02:28:29.892Z,16.00
2019-02-17T02:32:42.220Z,15.73
2019-02-17T02:36:55.289Z,15.87
2019-02-17T02:41:07.757Z,15.93
2019-02-17T02:45:20.643Z,16.20
2019-02-17T02:49:33.210Z,15.67
2019-02-17T02:53:45.609Z,16.03
2019-02-17T02:57:58.504Z,15.27
2019-02-17T03:02:11.060Z,15.67
2019-02-17T03:06:54.387Z,15.33
2019-02-17T03:11:07.142Z,14.93
2019-02-17T03:15:19.709Z,14.80
2019-02-17T03:19:32.683Z,14.50
2019-02-17T03:23:45.088Z,15.10
2019-02-17T03:27:57.506Z,16.13
2019-02-17T03:32:11.054Z,14.50
2019-02-17T03:36:23.465Z,13.80
2019-02-17T03:40:37.065Z,14.50
2019-02-17T03:44:49.795Z,13.50
2019-02-17T03:49:02.245Z,13.60
2019-02-17T03:53:14.552Z,13.40
2019-02-17T03:57:27.453Z,13.10
2019-02-17T04:01:41.096Z,13.80
2019-02-17T04:05:53.556Z,12.27
2019-02-17T04:10:06.535Z,12.80
2019-02-17T04:14:19.262Z,12.73
2019-02-17T04:18:32.081Z,12.27
2019-02-17T04:22:44.653Z,12.13
2019-02-17T04:26:56.950Z,11.93
2019-02-17T04:31:10.508Z,11.30
2019-02-17T04:35:22.904Z,12.33
2019-02-17T04:39:35.687Z,11.23
2019-02-17T04:43:48.227Z,11.03
2019-02-17T04:48:00.469Z,10.70
2019-02-17T04:52:13.904Z,10.90
2019-02-17T04:56:26.221Z,10.17
2019-02-17T05:00:40.480Z,10.07
2019-02-17T05:04:53.106Z,10.10
2019-02-17T05:09:06.280Z,10.40
2019-02-17T05:13:18.857Z,10.27
2019-02-17T05:17:31.804Z,10.37
2019-02-17T05:21:44.298Z,9.73
2019-02-17T05:25:56.721Z,10.20
2019-02-17T05:30:09.918Z,9.17
2019-02-17T05:34:22.257Z,9.40
2019-02-17T05:38:34.667Z,10.13
2019-02-17T05:42:47.465Z,10.70
2019-02-17T05:47:00.105Z,10.87
2019-02-17T05:51:13.013Z,10.53
2019-02-17T05:55:25.573Z,10.53
2019-02-17T05:59:38.552Z,9.63
2019-02-17T06:03:51.112Z,10.03
2019-02-17T06:08:03.427Z,10.23
2019-02-17T06:12:18.458Z,11.03
2019-02-17T06:16:30.209Z,10.77
2019-02-17T06:20:42.692Z,10.97
2019-02-17T06:24:55.503Z,10.93
2019-02-17T06:29:07.967Z,11.23
2019-02-17T06:33:20.399Z,11.10
2019-02-17T06:37:33.265Z,10.83
2019-02-17T06:41:45.725Z,10.53
2019-02-17T06:45:58.131Z,10.63
2019-02-17T06:50:11.785Z,11.97
2019-02-17T06:54:24.672Z,11.37
2019-02-17T06:58:37.128Z,12.93
2019-02-17T07:02:49.441Z,11.73
2019-02-17T07:07:04.556Z,12.80
2019-02-17T07:11:17.508Z,13.63
2019-02-17T07:15:30.176Z,13.93
2019-02-17T07:19:43.153Z,12.63
2019-02-17T07:23:55.685Z,13.63
2019-02-17T07:28:08.028Z,13.03
2019-02-17T07:32:20.817Z,14.80
2019-02-17T07:36:33.174Z,13.77
2019-02-17T07:40:46.151Z,14.23
2019-02-17T07:44:58.726Z,14.80
2019-02-17T07:49:11.128Z,14.40
2019-02-17T07:53:24.112Z,14.13
2019-02-17T07:57:36.586Z,14.10
2019-02-17T08:01:49.564Z,14.30
2019-02-17T08:06:02.122Z,14.90
2019-02-17T08:10:14.446Z,16.17
2019-02-17T08:14:26.954Z,15.50
2019-02-17T08:18:39.641Z,15.60
2019-02-17T08:22:52.101Z,16.87
2019-02-17T08:27:04.714Z,15.87
2019-02-17T08:31:17.337Z,16.37
2019-02-17T08:35:29.748Z,16.07
2019-02-17T08:39:42.641Z,16.23
2019-02-17T08:43:55.298Z,15.47
2019-02-17T08:48:07.616Z,14.97
2019-02-17T08:52:20.601Z,14.00
2019-02-17T08:56:33.396Z,13.67
2019-02-17T09:00:46.160Z,12.37
2019-02-17T09:04:58.717Z,13.23
2019-02-17T09:09:11.693Z,12.90
2019-02-17T09:13:24.364Z,12.47
2019-02-17T09:17:36.772Z,13.23
2019-02-17T09:21:49.557Z,13.07
2019-02-17T09:26:02.025Z,13.83
2019-02-17T09:30:16.210Z,14.33
2019-02-17T09:34:28.947Z,13.93
2019-02-17T09:38:41.315Z,13.83
2019-02-17T09:42:53.717Z,14.23
2019-02-17T09:47:06.513Z,13.67
2019-02-17T09:51:19.092Z,13.27
2019-02-17T09:55:31.486Z,13.30
2019-02-17T09:59:44.333Z,13.37
2019-02-17T10:03:56.849Z,14.10
2019-02-17T10:08:09.232Z,13.03
2019-02-17T10:12:22.032Z,13.13
2019-02-17T10:16:34.597Z,13.07
2019-02-17T10:20:47.577Z,11.80
2019-02-17T10:25:00.036Z,10.97
2019-02-17T10:29:12.404Z,12.20
2019-02-17T10:33:24.657Z,12.07
2019-02-17T10:37:37.442Z,11.33
2019-02-17T10:41:51.158Z,10.73
2019-02-17T10:46:05.926Z,11.93
2019-02-17T10:50:18.106Z,12.10
2019-02-17T10:54:30.759Z,12.20
2019-02-17T10:58:43.360Z,10.40
2019-02-17T11:02:56.109Z,10.57
2019-02-17T11:07:08.622Z,11.30
2019-02-17T11:11:21.593Z,11.27
2019-02-17T11:15:34.366Z,10.60
2019-02-17T11:19:47.455Z,10.57
2019-02-17T11:24:00.079Z,11.23
2019-02-17T11:28:12.443Z,11.17
2019-02-17T11:32:26.817Z,11.20
2019-02-17T11:36:39.326Z,10.67
2019-02-17T11:40:52.294Z,9.50
2019-02-17T11:45:05.028Z,11.60
2019-02-17T11:49:18.052Z,11.23
2019-02-17T11:53:30.618Z,11.07
2019-02-17T11:57:43.035Z,12.10
2019-02-17T12:01:56.150Z,11.27
2019-02-17T12:06:08.577Z,10.90
2019-02-17T12:10:21.461Z,11.50
2019-02-17T12:14:37.303Z,11.47
2019-02-17T12:18:50.286Z,11.73
2019-02-17T12:23:07.662Z,12.40
2019-02-17T12:27:25.616Z,11.37
2019-02-17T12:31:39.829Z,12.23
2019-02-17T12:35:52.656Z,12.70
2019-02-17T12:40:07.210Z,11.93
2019-02-17T12:44:19.978Z,11.80
2019-02-17T12:48:32.402Z,11.93
2019-02-17T12:52:47.754Z,12.17
2019-02-17T12:56:59.431Z,11.63
2019-02-17T13:01:13.589Z,11.37
2019-02-17T13:05:26.529Z,11.90
2019-02-17T13:09:39.546Z,10.90
2019-02-17T13:13:52.210Z,12.73
2019-02-17T13:18:04.735Z,10.77
2019-02-17T13:22:18.739Z,11.00
2019-02-17T13:26:31.375Z,11.37
2019-02-17T13:30:43.797Z,11.73
2019-02-17T13:34:56.208Z,12.50
2019-02-17T13:39:09.644Z,13.33
2019-02-17T13:43:22.433Z,12.40
2019-02-17T13:47:34.996Z,12.27
2019-02-17T13:51:47.507Z,12.53
2019-02-17T13:56:00.384Z,12.00
2019-02-17T14:00:16.167Z,13.30
2019-02-17T14:04:30.331Z,11.67
2019-02-17T14:08:43.439Z,10.83
2019-02-17T14:12:57.459Z,10.73
2019-02-17T14:17:10.187Z,11.50
2019-02-17T14:21:23.181Z,11.57
2019-02-17T14:25:35.748Z,11.73
2019-02-17T14:29:48.728Z,10.77
2019-02-17T14:34:01.288Z,10.50
2019-02-17T14:38:13.664Z,10.30
2019-02-17T14:42:27.794Z,8.77
2019-02-17T14:46:40.685Z,8.23
2019-02-17T14:50:53.777Z,8.50
2019-02-17T14:55:06.341Z,9.27
2019-02-17T14:59:19.792Z,8.73
2019-02-17T15:03:32.389Z,8.00
2019-02-17T15:07:45.084Z,7.97
2019-02-17T15:11:57.596Z,7.80
2019-02-17T15:16:09.844Z,7.63
2019-02-17T15:20:22.736Z,7.33
2019-02-17T15:24:35.085Z,7.50
2019-02-17T15:28:50.972Z,6.43
2019-02-17T15:33:03.930Z,6.47
2019-02-17T15:37:15.570Z,6.83
2019-02-17T15:41:28.100Z,5.57
2019-02-17T15:45:40.815Z,5.17
2019-02-17T15:49:53.365Z,5.97
2019-02-17T15:54:05.953Z,6.10
2019-02-17T15:58:18.666Z,4.17
2019-02-17T16:02:31.132Z,4.23
2019-02-17T16:06:43.541Z,4.40
2019-02-17T16:10:56.329Z,4.00
2019-02-17T16:15:10.588Z,3.80
2019-02-17T16:19:23.640Z,3.90
2019-02-17T16:23:35.971Z,3.97
2019-02-17T16:27:48.275Z,4.00
2019-02-17T16:32:01.172Z,3.80
2019-02-17T16:36:13.627Z,3.60
2019-02-17T16:40:26.617Z,4.00
2019-02-17T16:44:39.353Z,3.93
2019-02-17T16:48:53.820Z,3.97
2019-02-17T16:53:06.464Z,3.97
2019-02-17T16:57:18.769Z,4.23
2019-02-17T17:01:32.801Z,4.03
2019-02-17T17:05:45.549Z,3.77
2019-02-17T17:09:57.864Z,3.73
2019-02-17T17:14:10.176Z,3.93
2019-02-17T17:18:23.132Z,3.27
2019-02-17T17:22:35.745Z,3.60
2019-02-17T17:26:48.608Z,4.23
2019-02-17T17:31:01.072Z,3.60
2019-02-17T17:35:13.480Z,3.57
2019-02-17T17:39:26.931Z,3.63
2019-02-17T17:43:39.328Z,4.17
2019-02-17T17:47:52.320Z,4.30
2019-02-17T17:52:04.677Z,3.43
2019-02-17T17:56:17.094Z,3.50
2019-02-17T18:00:31.003Z,2.70
2019-02-17T18:04:43.588Z,2.57
2019-02-17T18:08:55.975Z,2.90
2019-02-17T18:13:08.396Z,2.70
2019-02-17T18:17:22.966Z,2.77
2019-02-17T18:21:35.716Z,2.83
2019-02-17T18:25:48.102Z,2.87
2019-02-17T18:30:00.881Z,2.57
2019-02-17T18:34:13.335Z,2.27
2019-02-17T18:38:25.753Z,2.03
2019-02-17T18:42:38.537Z,2.40
2019-02-17T18:46:51.004Z,2.63
2019-02-17T18:51:04.425Z,3.07
2019-02-17T18:55:16.862Z,3.77
2019-02-17T18:59:29.836Z,4.20
2019-02-17T19:03:42.253Z,3.77
2019-02-17T19:07:54.601Z,3.90
2019-02-17T19:12:08.784Z,4.00
2019-02-17T19:16:21.493Z,3.43
2019-02-17T19:20:34.225Z,3.67
2019-02-17T19:24:47.095Z,3.13
2019-02-17T19:28:59.551Z,2.73
2019-02-17T19:33:11.872Z,2.67
2019-02-17T19:37:24.756Z,2.47
2019-02-17T19:41:37.211Z,2.87
2019-02-17T19:45:50.496Z,3.37
2019-02-17T19:50:03.056Z,5.00
2019-02-17T19:54:16.015Z,5.10
2019-02-17T19:58:28.614Z,4.30
2019-02-17T20:02:52.300Z,3.90
2019-02-17T20:07:06.573Z,4.27
2019-02-17T20:11:21.325Z,3.60
2019-02-17T20:15:34.458Z,3.23
2019-02-17T20:19:47.235Z,3.30
2019-02-17T20:23:59.761Z,3.07
2019-02-17T20:28:12.084Z,2.83
2019-02-17T20:32:24.796Z,2.80
2019-02-17T20:36:37.251Z,2.80
2019-02-17T20:40:50.136Z,2.67
2019-02-17T20:45:02.592Z,3.17
2019-02-17T20:49:14.908Z,2.37
2019-02-17T20:53:27.317Z,2.50
2019-02-17T20:57:40.564Z,2.13
2019-02-17T21:01:52.879Z,2.30
2019-02-17T21:06:12.403Z,2.20
2019-02-17T21:10:19.853Z,2.33
2019-02-17T21:14:32.160Z,2.43
2019-02-17T21:18:44.477Z,2.80
2019-02-17T21:22:57.519Z,2.93
2019-02-17T21:27:09.985Z,2.43
2019-02-17T21:31:22.778Z,1.93
2019-02-17T21:35:35.481Z,2.60
2019-02-17T21:39:52.698Z,2.67
2019-02-17T21:44:07.993Z,2.13
2019-02-17T21:48:22.893Z,2.27
2019-02-17T21:52:36.573Z,2.60
2019-02-17T21:56:49.293Z,2.00
2019-02-17T22:01:03.244Z,1.80
2019-02-17T22:05:17.332Z,2.23
2019-02-17T22:09:30.666Z,3.10
2019-02-17T22:13:44.209Z,2.60
2019-02-17T22:17:56.516Z,2.60
2019-02-17T22:22:09.424Z,2.20
2019-02-17T22:26:21.977Z,2.07
2019-02-17T22:30:36.972Z,2.27
2019-02-17T22:34:49.426Z,2.67
2019-02-17T22:39:02.244Z,2.57
2019-02-17T22:43:14.778Z,2.63
2019-02-17T22:47:27.117Z,3.47
2019-02-17T22:51:39.907Z,2.67
2019-02-17T22:55:52.466Z,2.40
2019-02-17T23:00:07.053Z,2.30
2019-02-17T23:04:19.716Z,2.53
2019-02-17T23:08:31.956Z,2.30
2019-02-17T23:12:44.751Z,2.80
2019-02-17T23:16:57.203Z,2.70
2019-02-17T23:21:09.614Z,2.37
2019-02-17T23:25:22.468Z,2.47
2019-02-17T23:29:36.148Z,3.17
2019-02-17T23:33:48.499Z,2.90
2019-02-17T23:38:00.886Z,3.60
2019-02-17T23:42:13.708Z,2.90
2019-02-17T23:46:26.159Z,3.77
2019-02-17T23:50:38.472Z,2.73
2019-02-17T23:54:51.364Z,2.97
2019-02-17T23:59:05.355Z,2.73
